EGSC METAR and TAF | Updated Today

EGSC METAR

Cambridge Airport

Cambridge Airport (EGSC) hasn't published a METAR.
We found the following current weather conditions for Teversham from other sources.

Cambridge Airport (EGSC) METAR

  • Weather conditions right now at EGSC:
  • Present conditions: Clouds
  • Clouds: Broken clouds
  • Cloud cover: 57%
  • Wind: 206 at 7kts
  • Temperature: 5.2 celsius
  • Feels like: 2.4 celsius
  • Pressure: 983mb
  • Humidity: 80%


Useful to know...

EGSC TAF

Cambridge Airport

TAF EGSC 071357Z 0715/0717 14018G32KT 9999 SCT020 BECMG 0715/0717 20015G25KT TEMPO 0715/0717 4000 +RA BKN008
Observation time: 17:38 hr. ago
Need help? Read our tutorial on how to read TAFs or read the parsed version below.

Parsed version of TAF for Cambridge Airport (EGSC)

  • From 07 December at 15:00 UTC, to day 07 of the month at 17:00 UTC
  • Clouds: Scattered at 610 meters
  • Visibility: Greater than 10 km
  • Wind: 140 degrees at 18
  • Expected to arise soon, from 07 December at 15:00 UTC, to day 07 of the month at 17:00 UTC
  • Wind: 200 degrees at 15
  • Expected to arise temporarily, from 07 December at 15:00 UTC, to day 07 of the month at 17:00 UTC
  • Clouds: Broken sky at 244 meters
  • Visibility: 4000 meters
  • Other: Strong rain